Time;durP1;ratioP1;P1;durP2;ratioP2;P2;SDS_P1;SDS_P2;PMS_P1;PMS_P2;Temp;Humidity;BMP_temperature;BMP_pressure;BME280_temperature;BME280_humidity;BME280_pressure;Samples;Min_cycle;Max_cycle;Signal;HPM_P1;HPM_P2
2024/01/25 00:01:02;;;;;;;20.20;12.90;;;;;;;8.48;44.64;101441.22;106515;1276;25478;-53
2024/01/25 00:03:30;;;;;;;24.70;13.10;;;;;;;8.46;44.62;101440.70;106826;1274;25393;-53
2024/01/25 00:05:57;;;;;;;19.70;13.70;;;;;;;8.43;44.78;101436.56;106783;1272;22574;-53
2024/01/25 00:08:25;;;;;;;20.90;13.50;;;;;;;8.41;44.85;101441.23;106782;1275;25325;-53
2024/01/25 00:10:52;;;;;;;21.10;14.00;;;;;;;8.39;45.02;101441.41;106694;1272;25492;-53
2024/01/25 00:13:19;;;;;;;18.80;13.60;;;;;;;8.39;45.20;101433.11;106781;1272;25338;-53
2024/01/25 00:15:47;;;;;;;21.00;13.70;;;;;;;8.40;45.40;101426.90;106119;1266;1003557;-53
2024/01/25 00:18:13;;;;;;;19.30;12.90;;;;;;;8.43;45.49;101426.02;106715;1259;25338;-53
2024/01/25 00:20:40;;;;;;;23.20;14.60;;;;;;;8.44;45.34;101417.02;106688;1263;25411;-53
2024/01/25 00:23:08;;;;;;;19.90;13.00;;;;;;;8.45;45.48;101416.67;106925;1262;25427;-53
2024/01/25 00:25:35;;;;;;;19.90;13.10;;;;;;;8.45;45.29;101417.71;106826;1257;25342;-53
2024/01/25 00:28:03;;;;;;;20.10;12.70;;;;;;;8.45;45.38;101413.39;106051;1272;1003464;-53
2024/01/25 00:30:30;;;;;;;18.70;12.40;;;;;;;8.44;45.40;101404.05;106591;1262;25328;-53
2024/01/25 00:32:58;;;;;;;19.10;13.40;;;;;;;8.42;45.41;101402.67;106004;1262;1003377;-53
2024/01/25 00:35:26;;;;;;;19.70;13.40;;;;;;;8.41;45.57;101405.80;106771;1265;25338;-53
2024/01/25 00:37:54;;;;;;;17.30;13.40;;;;;;;8.40;45.63;101406.31;105875;1269;1003004;-53
2024/01/25 00:40:22;;;;;;;25.10;12.60;;;;;;;8.41;45.49;101405.45;106779;1266;25367;-53
2024/01/25 00:42:53;;;;;;;20.30;14.30;;;;;;;8.41;45.45;101398.70;106806;1259;22651;-53
2024/01/25 00:45:21;;;;;;;19.80;13.00;;;;;;;8.42;45.33;101395.77;106816;1264;25346;-53
2024/01/25 00:47:50;;;;;;;22.80;13.70;;;;;;;8.43;45.43;101394.55;106062;1259;1003132;-53
2024/01/25 00:50:20;;;;;;;19.50;13.30;;;;;;;8.43;45.39;101393.34;105823;1262;1002845;-53
2024/01/25 00:52:50;;;;;;;17.90;12.50;;;;;;;8.44;45.33;101391.27;105894;1262;1003621;-53
2024/01/25 00:55:18;;;;;;;18.80;12.80;;;;;;;8.43;45.33;101387.45;106844;1273;24252;-53
2024/01/25 00:57:45;;;;;;;20.90;14.00;;;;;;;8.43;45.45;101386.77;106765;1260;22532;-53
2024/01/25 01:00:15;;;;;;;16.70;12.40;;;;;;;8.42;45.62;101390.92;106836;1259;22526;-53
2024/01/25 01:02:45;;;;;;;20.50;13.00;;;;;;;8.41;45.79;101386.77;106863;1256;25354;-53
2024/01/25 01:05:13;;;;;;;18.30;13.70;;;;;;;8.41;45.83;101380.91;106790;1259;25309;-53
2024/01/25 01:07:41;;;;;;;20.60;13.40;;;;;;;8.41;45.88;101382.63;106566;1271;22554;-53
2024/01/25 01:10:09;;;;;;;21.10;13.90;;;;;;;8.41;46.03;101380.71;106766;1260;22539;-53
2024/01/25 01:12:37;;;;;;;19.70;14.10;;;;;;;8.42;45.94;101376.23;106608;1275;25309;-53
2024/01/25 01:15:05;;;;;;;17.50;12.70;;;;;;;8.44;46.13;101370.68;106744;1270;22534;-53
2024/01/25 01:17:32;;;;;;;20.90;13.70;;;;;;;8.45;46.09;101368.27;106790;1262;24288;-53
2024/01/25 01:20:00;;;;;;;19.70;13.30;;;;;;;8.46;46.26;101371.55;106776;1269;25328;-53
2024/01/25 01:22:27;;;;;;;21.60;14.20;;;;;;;8.47;46.29;101373.62;106890;1260;25343;-53
2024/01/25 01:24:54;;;;;;;23.40;14.70;;;;;;;8.46;46.49;101365.66;106776;1273;25328;-53
2024/01/25 01:27:21;;;;;;;23.00;13.80;;;;;;;8.44;46.58;101360.84;105868;1278;1002970;-52
2024/01/25 01:29:49;;;;;;;19.40;13.80;;;;;;;8.42;46.80;101362.40;106808;1270;25418;-52
2024/01/25 01:32:16;;;;;;;20.40;14.00;;;;;;;8.40;47.02;101356.36;106801;1272;25363;-52
2024/01/25 01:34:42;;;;;;;22.00;14.60;;;;;;;8.39;47.22;101352.55;106002;1265;1003078;-52
2024/01/25 01:37:10;;;;;;;21.70;15.00;;;;;;;8.39;47.27;101342.54;106724;1266;25436;-52
2024/01/25 01:39:37;;;;;;;24.20;16.40;;;;;;;8.39;47.43;101338.20;105963;1259;1003775;-53
2024/01/25 01:42:04;;;;;;;22.10;14.80;;;;;;;8.40;47.55;101331.80;106566;1273;25352;-53
2024/01/25 01:44:31;;;;;;;22.20;15.30;;;;;;;8.40;47.54;101324.71;106013;1273;1002861;-52
2024/01/25 01:46:59;;;;;;;22.00;15.60;;;;;;;8.41;47.73;101333.70;106767;1271;25405;-52
2024/01/25 01:49:26;;;;;;;24.70;15.30;;;;;;;8.42;48.07;101345.79;105875;1268;1016336;-52
2024/01/25 01:51:53;;;;;;;23.70;16.10;;;;;;;8.42;48.08;101338.02;106698;1271;25419;-53
2024/01/25 01:54:21;;;;;;;20.70;14.90;;;;;;;8.42;48.38;101332.66;106636;1277;25448;-52
2024/01/25 01:56:48;;;;;;;24.70;16.20;;;;;;;8.40;48.45;101329.03;106752;1276;25484;-52
2024/01/25 01:59:14;;;;;;;24.30;15.70;;;;;;;8.38;48.63;101330.77;106705;1276;25363;-53
2024/01/25 02:01:41;;;;;;;24.80;15.70;;;;;;;8.37;48.79;101325.91;106669;1271;25400;-55
2024/01/25 02:04:11;;;;;;;22.30;16.50;;;;;;;8.36;48.87;101312.45;106086;1260;1003638;-54
2024/01/25 02:06:39;;;;;;;24.30;16.90;;;;;;;8.36;49.05;101310.38;106822;1266;25252;-53
2024/01/25 02:09:06;;;;;;;28.80;20.80;;;;;;;8.36;49.12;101305.20;106752;1259;22560;-54
2024/01/25 02:11:33;;;;;;;27.00;17.90;;;;;;;8.37;49.36;101303.27;106784;1260;25468;-53
2024/01/25 02:14:00;;;;;;;26.10;17.60;;;;;;;8.38;49.50;101294.80;106872;1270;25516;-54
2024/01/25 02:16:27;;;;;;;24.30;17.00;;;;;;;8.40;49.47;101291.86;106807;1272;25477;-53
2024/01/25 02:18:57;;;;;;;27.80;17.50;;;;;;;8.42;49.41;101289.95;106787;1268;25428;-53
2024/01/25 02:21:24;;;;;;;25.40;17.70;;;;;;;8.44;49.43;101292.37;106775;1276;24418;-53
2024/01/25 02:23:52;;;;;;;25.70;17.60;;;;;;;8.45;49.44;101293.91;106809;1273;25480;-53
2024/01/25 02:26:19;;;;;;;25.90;16.70;;;;;;;8.47;49.32;101291.33;106777;1273;25353;-53
2024/01/25 02:28:46;;;;;;;26.00;17.30;;;;;;;8.47;49.47;101291.50;106552;1272;25480;-53
2024/01/25 02:31:14;;;;;;;24.00;16.80;;;;;;;8.50;49.44;101286.45;106591;1259;22544;-53
2024/01/25 02:33:41;;;;;;;26.20;17.70;;;;;;;8.50;49.22;101285.77;106656;1263;22607;-53
2024/01/25 02:36:08;;;;;;;27.70;17.60;;;;;;;8.51;49.26;101291.65;106439;1267;25331;-53
2024/01/25 02:38:35;;;;;;;28.10;17.60;;;;;;;8.52;49.43;101300.63;105592;1273;1002841;-53
2024/01/25 02:41:02;;;;;;;26.50;17.50;;;;;;;8.54;49.39;101295.95;106575;1270;25351;-54
2024/01/25 02:43:29;;;;;;;26.70;17.70;;;;;;;8.54;49.47;101294.39;105766;1260;1003109;-53
2024/01/25 02:45:56;;;;;;;25.10;17.70;;;;;;;8.55;49.35;101286.27;106541;1273;25434;-54
2024/01/25 02:48:23;;;;;;;24.70;17.50;;;;;;;8.55;49.36;101279.86;106456;1273;25329;-54
2024/01/25 02:50:51;;;;;;;26.20;17.80;;;;;;;8.55;49.30;101282.63;106764;1272;25341;-53
2024/01/25 02:53:18;;;;;;;27.70;19.20;;;;;;;8.54;49.24;101282.45;105986;1263;1003586;-53
2024/01/25 02:55:45;;;;;;;26.10;18.20;;;;;;;8.54;49.42;101287.30;106590;1272;25491;-52
2024/01/25 02:58:12;;;;;;;26.60;18.00;;;;;;;8.55;49.34;101281.59;106167;1257;1003713;-52
2024/01/25 03:00:40;;;;;;;27.40;19.00;;;;;;;8.55;49.32;101275.36;106725;1270;25408;-52
2024/01/25 03:03:07;;;;;;;26.60;18.40;;;;;;;8.55;49.39;101264.82;106022;1263;1003194;-51
2024/01/25 03:05:34;;;;;;;26.30;18.60;;;;;;;8.55;49.66;101252.38;106779;1266;25322;-52
2024/01/25 03:08:02;;;;;;;27.30;19.10;;;;;;;8.55;49.46;101242.86;106723;1261;25331;-52
2024/01/25 03:10:29;;;;;;;27.70;18.30;;;;;;;8.54;49.48;101234.21;106044;1270;1015560;-51
2024/01/25 03:12:56;;;;;;;26.70;18.40;;;;;;;8.53;49.44;101238.36;106796;1272;25459;-51
2024/01/25 03:15:23;;;;;;;25.60;18.00;;;;;;;8.53;49.65;101227.84;106055;1266;1003074;-53
2024/01/25 03:17:50;;;;;;;30.80;19.90;;;;;;;8.51;49.63;101221.95;106731;1274;24216;-55
2024/01/25 03:20:18;;;;;;;26.40;18.00;;;;;;;8.51;49.62;101228.88;105888;1264;1003865;-53
2024/01/25 03:22:45;;;;;;;27.20;18.60;;;;;;;8.51;49.58;101230.95;106818;1260;25397;-53
2024/01/25 03:25:12;;;;;;;26.20;18.40;;;;;;;8.51;49.57;101228.89;106052;1272;1003265;-53
2024/01/25 03:27:39;;;;;;;26.00;18.10;;;;;;;8.51;49.57;101224.73;106556;1264;25385;-53
2024/01/25 03:30:07;;;;;;;25.20;17.20;;;;;;;8.50;49.74;101216.95;106644;1264;25456;-53
2024/01/25 03:32:35;;;;;;;24.00;17.30;;;;;;;8.50;49.56;101213.66;106121;1260;1003767;-53
2024/01/25 03:35:03;;;;;;;27.70;17.50;;;;;;;8.51;49.49;101210.20;106743;1268;25356;-53
2024/01/25 03:37:30;;;;;;;27.80;17.40;;;;;;;8.50;49.60;101211.59;105898;1267;1003098;-53
2024/01/25 03:39:58;;;;;;;25.40;17.90;;;;;;;8.49;49.60;101209.52;106876;1261;25367;-53
2024/01/25 03:42:25;;;;;;;25.60;17.30;;;;;;;8.47;49.61;101207.48;106760;1270;25343;-53
2024/01/25 03:44:53;;;;;;;25.00;16.60;;;;;;;8.46;49.65;101202.27;106773;1267;25360;-53
2024/01/25 03:47:20;;;;;;;23.90;17.20;;;;;;;8.44;49.70;101200.39;106841;1270;25380;-51
2024/01/25 03:49:47;;;;;;;23.10;17.20;;;;;;;8.45;49.68;101210.94;106743;1269;25321;-53
2024/01/25 03:52:14;;;;;;;23.20;17.00;;;;;;;8.44;49.73;101210.77;106648;1262;22539;-53
2024/01/25 03:54:42;;;;;;;26.90;17.90;;;;;;;8.43;49.65;101209.39;106463;1261;25389;-53
2024/01/25 03:57:09;;;;;;;24.90;17.10;;;;;;;8.42;49.65;101203.34;106605;1256;25477;-53
2024/01/25 03:59:36;;;;;;;28.70;19.40;;;;;;;8.41;49.70;101202.48;105824;1270;1002889;-53
2024/01/25 04:02:03;;;;;;;26.10;17.60;;;;;;;8.39;49.73;101196.63;106466;1268;25376;-53
2024/01/25 04:04:31;;;;;;;22.30;17.30;;;;;;;8.37;49.79;101189.02;106488;1257;24388;-52
2024/01/25 04:06:58;;;;;;;25.60;17.50;;;;;;;8.34;49.64;101183.66;106491;1257;25488;-54
2024/01/25 04:09:25;;;;;;;23.60;16.30;;;;;;;8.32;49.83;101180.58;106201;1277;25348;-51
2024/01/25 04:11:53;;;;;;;26.10;18.50;;;;;;;8.30;49.91;101186.98;106403;1267;22538;-51
2024/01/25 04:14:20;;;;;;;23.70;16.80;;;;;;;8.29;49.86;101185.95;106418;1261;25526;-51
2024/01/25 04:16:47;;;;;;;25.00;17.30;;;;;;;8.27;49.90;101184.92;106502;1266;25342;-52
2024/01/25 04:19:14;;;;;;;24.60;16.30;;;;;;;8.27;49.97;101181.12;106206;1278;25328;-52
2024/01/25 04:21:42;;;;;;;24.10;16.90;;;;;;;8.27;50.14;101166.26;106842;1267;25351;-52
2024/01/25 04:24:09;;;;;;;27.70;17.40;;;;;;;8.29;50.23;101185.77;106502;1264;479452;-51
2024/01/25 04:26:36;;;;;;;23.60;16.10;;;;;;;8.30;50.01;101204.79;106866;1270;25357;-52
2024/01/25 04:29:03;;;;;;;21.00;16.20;;;;;;;8.31;50.06;101204.09;106774;1270;25376;-54
2024/01/25 04:31:30;;;;;;;27.10;18.30;;;;;;;8.32;50.00;101208.23;106810;1260;25395;-52
2024/01/25 04:33:58;;;;;;;24.70;16.80;;;;;;;8.32;49.99;101210.48;106849;1270;25491;-51
2024/01/25 04:36:25;;;;;;;23.60;16.90;;;;;;;8.33;50.15;101202.52;106705;1260;25360;-51
2024/01/25 04:38:52;;;;;;;24.50;16.90;;;;;;;8.32;50.11;101193.37;106814;1260;25399;-54
2024/01/25 04:41:19;;;;;;;26.30;17.80;;;;;;;8.33;50.11;101198.71;106807;1260;25542;-53
2024/01/25 04:43:47;;;;;;;23.90;16.30;;;;;;;8.35;50.04;101202.16;106752;1267;23867;-53
2024/01/25 04:46:14;;;;;;;24.80;18.20;;;;;;;8.34;49.90;101204.59;106769;1257;25350;-53
2024/01/25 04:48:41;;;;;;;25.10;18.00;;;;;;;8.33;50.13;101202.86;106036;1261;1003553;-53
2024/01/25 04:51:17;;;;;;;24.70;18.60;;;;;;;8.33;50.12;101197.68;106742;1265;25356;-52
2024/01/25 04:53:44;;;;;;;23.60;16.80;;;;;;;8.34;50.25;101186.27;106575;1261;25372;-53
2024/01/25 04:56:11;;;;;;;23.60;17.10;;;;;;;8.35;50.29;101176.23;106634;1264;25490;-52
2024/01/25 04:58:39;;;;;;;28.20;19.40;;;;;;;8.35;50.36;101174.33;105858;1264;1014816;-53
2024/01/25 05:01:06;;;;;;;25.70;17.80;;;;;;;8.38;50.39;101173.63;106766;1272;25376;-53
2024/01/25 05:03:34;;;;;;;28.10;18.40;;;;;;;8.40;50.49;101186.24;106850;1257;25356;-53
2024/01/25 05:06:01;;;;;;;27.50;18.80;;;;;;;8.43;50.59;101175.67;106720;1257;24355;-53
2024/01/25 05:08:28;;;;;;;22.40;17.00;;;;;;;8.46;50.72;101166.33;106600;1257;25410;-53
2024/01/25 05:10:55;;;;;;;25.10;17.10;;;;;;;8.49;50.74;101164.73;106308;1264;25338;-52
2024/01/25 05:13:22;;;;;;;24.20;16.80;;;;;;;8.52;50.74;101164.38;105847;1270;1003062;-53
2024/01/25 05:15:49;;;;;;;24.60;17.50;;;;;;;8.54;50.74;101162.98;106318;1271;25339;-52
2024/01/25 05:18:17;;;;;;;25.00;17.60;;;;;;;8.56;50.93;101166.59;106595;1267;25489;-52
2024/01/25 05:20:44;;;;;;;25.60;17.10;;;;;;;8.57;50.78;101177.84;106544;1261;25357;-53
2024/01/25 05:23:11;;;;;;;24.40;17.30;;;;;;;8.57;50.86;101184.73;105487;1270;1003136;-54
2024/01/25 05:25:38;;;;;;;24.90;18.90;;;;;;;8.59;50.85;101183.00;106655;1256;25399;-53
2024/01/25 05:28:05;;;;;;;26.50;19.20;;;;;;;8.59;50.65;101188.54;106870;1262;25488;-53
2024/01/25 05:30:33;;;;;;;25.50;18.20;;;;;;;8.60;50.64;101193.52;106857;1261;25376;-53
2024/01/25 05:33:00;;;;;;;27.70;19.30;;;;;;;8.59;50.59;101189.74;106744;1257;25367;-53
2024/01/25 05:35:29;;;;;;;26.20;18.20;;;;;;;8.59;50.55;101189.75;106799;1271;25389;-51
2024/01/25 05:37:56;;;;;;;26.60;18.70;;;;;;;8.61;50.53;101183.16;106728;1259;25459;-51
2024/01/25 05:40:23;;;;;;;25.20;17.90;;;;;;;8.63;50.45;101185.40;106673;1278;25397;-51
2024/01/25 05:42:50;;;;;;;24.10;17.10;;;;;;;8.64;50.43;101182.61;106805;1260;25398;-53
2024/01/25 05:45:20;;;;;;;25.70;18.60;;;;;;;8.65;50.48;101183.48;106810;1260;25519;-53
2024/01/25 05:47:47;;;;;;;25.80;18.50;;;;;;;8.65;50.36;101184.85;105982;1256;1003639;-51
2024/01/25 05:50:14;;;;;;;26.50;18.30;;;;;;;8.67;50.31;101186.58;106793;1264;25418;-53
2024/01/25 05:52:41;;;;;;;28.60;19.10;;;;;;;8.68;50.29;101184.65;105832;1274;1003092;-53
2024/01/25 05:55:10;;;;;;;26.80;19.30;;;;;;;8.68;50.33;101174.80;106756;1274;25328;-52
2024/01/25 05:57:37;;;;;;;26.10;18.90;;;;;;;8.67;50.09;101172.55;106794;1267;22540;-51
2024/01/25 06:00:06;;;;;;;27.70;18.90;;;;;;;8.65;50.13;101168.27;106767;1261;25367;-51
2024/01/25 06:02:35;;;;;;;25.90;17.40;;;;;;;8.63;50.23;101166.90;106800;1260;22634;-53
2024/01/25 06:05:03;;;;;;;25.40;18.60;;;;;;;8.61;50.23;101162.06;106802;1260;25331;-51
2024/01/25 06:07:30;;;;;;;25.80;18.90;;;;;;;8.59;50.24;101160.52;106710;1259;25321;-51
2024/01/25 06:09:58;;;;;;;23.90;17.70;;;;;;;8.58;50.34;101163.30;106638;1259;24195;-52
2024/01/25 06:12:25;;;;;;;27.00;18.70;;;;;;;8.57;50.37;101162.44;106683;1261;25338;-53
2024/01/25 06:14:53;;;;;;;27.80;19.00;;;;;;;8.56;50.49;101164.52;106838;1260;25331;-53
2024/01/25 06:17:20;;;;;;;26.20;18.10;;;;;;;8.58;50.56;101167.09;106740;1257;25461;-53
2024/01/25 06:19:47;;;;;;;27.80;19.40;;;;;;;8.58;50.32;101167.44;106804;1269;25332;-54
2024/01/25 06:22:16;;;;;;;28.60;18.20;;;;;;;8.59;50.36;101162.77;106784;1262;25353;-53
2024/01/25 06:24:44;;;;;;;25.70;19.10;;;;;;;8.60;50.40;101157.91;106028;1270;1003230;-53
2024/01/25 06:27:11;;;;;;;27.70;18.10;;;;;;;8.61;50.24;101159.98;106776;1267;25419;-51
2024/01/25 06:29:38;;;;;;;27.30;19.20;;;;;;;8.63;50.22;101160.85;106716;1258;25366;-54
2024/01/25 06:32:06;;;;;;;25.80;18.70;;;;;;;8.64;50.32;101161.88;106113;1272;1003686;-52
2024/01/25 06:34:40;;;;;;;28.50;18.80;;;;;;;8.68;50.25;101164.42;106779;1256;25429;-53
2024/01/25 06:37:08;;;;;;;28.60;19.90;;;;;;;8.72;50.31;101154.89;106756;1260;25356;-53
2024/01/25 06:39:35;;;;;;;26.10;18.80;;;;;;;8.79;50.38;101149.98;106762;1256;22568;-53
2024/01/25 06:42:02;;;;;;;26.40;18.10;;;;;;;8.88;50.17;101152.15;106481;1264;25321;-52
2024/01/25 06:44:30;;;;;;;26.80;18.60;;;;;;;8.99;50.17;101153.09;106691;1264;23238;-52
2024/01/25 06:46:57;;;;;;;24.70;17.90;;;;;;;9.09;49.99;101151.80;106739;1259;25370;-52
2024/01/25 06:49:25;;;;;;;28.10;18.30;;;;;;;9.16;49.79;101151.38;106813;1260;25331;-51
2024/01/25 06:51:52;;;;;;;25.20;18.60;;;;;;;9.20;49.48;101155.14;106389;1265;25352;-52
2024/01/25 06:54:19;;;;;;;25.70;18.70;;;;;;;9.22;49.53;101151.32;105941;1264;1002590;-53
2024/01/25 06:56:46;;;;;;;24.10;18.80;;;;;;;9.22;49.49;101150.11;106784;1257;25414;-52
2024/01/25 06:59:13;;;;;;;27.20;18.50;;;;;;;9.21;49.62;101150.63;106587;1262;25500;-52
2024/01/25 07:01:41;;;;;;;24.00;17.90;;;;;;;9.20;49.46;101153.41;106807;1259;25524;-53
2024/01/25 07:04:08;;;;;;;25.50;17.90;;;;;;;9.19;49.83;101152.21;106875;1265;25799;-52
2024/01/25 07:06:36;;;;;;;24.30;17.40;;;;;;;9.19;49.97;101153.43;106802;1256;25331;-53
2024/01/25 07:09:07;;;;;;;24.70;18.10;;;;;;;9.18;50.11;101153.42;106583;1261;25487;-53
2024/01/25 07:11:34;;;;;;;22.90;16.00;;;;;;;9.19;50.20;101148.23;106642;1267;23906;-52
2024/01/25 07:14:01;;;;;;;79.60;41.00;;;;;;;9.20;50.37;101146.48;106716;1258;22649;-52
2024/01/25 07:16:30;;;;;;;35.30;22.50;;;;;;;9.22;50.40;101144.91;106572;1259;22534;-52
2024/01/25 07:18:57;;;;;;;24.80;17.70;;;;;;;9.25;50.53;101143.34;106773;1272;25421;-53
2024/01/25 07:21:25;;;;;;;23.80;16.50;;;;;;;9.28;50.72;101142.78;106741;1272;25380;-53
2024/01/25 07:23:52;;;;;;;24.80;16.50;;;;;;;9.32;50.79;101140.65;106689;1278;22540;-52
2024/01/25 07:26:19;;;;;;;21.20;15.30;;;;;;;9.37;50.69;101138.02;106814;1272;25404;-52
2024/01/25 07:28:46;;;;;;;21.70;15.00;;;;;;;9.41;50.59;101139.00;106724;1260;25366;-53
2024/01/25 07:31:13;;;;;;;20.20;14.50;;;;;;;9.45;50.49;101134.98;106746;1256;25416;-52
2024/01/25 07:33:41;;;;;;;20.30;14.90;;;;;;;9.48;50.63;101134.09;106690;1272;25351;-54
2024/01/25 07:36:09;;;;;;;21.30;15.40;;;;;;;9.52;50.56;101135.59;106731;1272;22606;-52
2024/01/25 07:38:36;;;;;;;24.30;15.90;;;;;;;9.55;50.46;101133.98;106830;1272;25404;-53
2024/01/25 07:41:03;;;;;;;24.70;17.80;;;;;;;9.61;50.48;101136.86;106813;1272;25485;-52
2024/01/25 07:43:30;;;;;;;23.10;16.50;;;;;;;9.68;50.11;101136.10;106751;1272;25387;-52
2024/01/25 07:45:58;;;;;;;24.90;16.50;;;;;;;9.73;49.99;101135.50;106131;1258;1002996;-53
2024/01/25 07:48:25;;;;;;;25.20;16.90;;;;;;;9.79;49.87;101134.74;106791;1259;25339;-53
2024/01/25 07:50:52;;;;;;;22.80;17.00;;;;;;;9.85;50.12;101136.39;106707;1262;25408;-53
2024/01/25 07:53:19;;;;;;;23.60;16.70;;;;;;;9.96;50.30;101138.70;106799;1271;25379;-53
2024/01/25 07:55:46;;;;;;;24.70;17.20;;;;;;;10.06;50.45;101140.80;106026;1275;1002999;-56
2024/01/25 07:58:15;;;;;;;21.10;15.30;;;;;;;10.18;50.43;101143.45;106681;1272;25367;-56
2024/01/25 08:00:42;;;;;;;22.00;16.80;;;;;;;10.26;50.57;101146.28;106739;1272;25527;-55
2024/01/25 08:03:09;;;;;;;23.40;16.00;;;;;;;10.32;50.76;101150.00;106768;1259;25351;-54
2024/01/25 08:05:37;;;;;;;20.10;15.40;;;;;;;10.34;50.62;101156.91;106048;1268;1002849;-57
2024/01/25 08:08:14;;;;;;;19.10;14.40;;;;;;;10.35;50.56;101153.42;106795;1272;23396;-56
2024/01/25 08:10:43;;;;;;;23.20;15.10;;;;;;;10.35;50.62;101158.27;106780;1259;24249;-55
2024/01/25 08:13:10;;;;;;;21.30;15.90;;;;;;;10.35;50.68;101161.73;106733;1272;24043;-58
2024/01/25 08:15:37;;;;;;;20.70;14.70;;;;;;;10.36;50.72;101159.65;106776;1272;25278;-55
2024/01/25 08:18:05;;;;;;;20.20;14.50;;;;;;;10.38;50.87;101162.92;106654;1261;24367;-56
2024/01/25 08:20:32;;;;;;;22.00;15.50;;;;;;;10.38;51.04;101158.58;106813;1256;25318;-55
2024/01/25 08:23:00;;;;;;;19.90;15.10;;;;;;;10.38;51.27;101166.21;106701;1261;24372;-57
2024/01/25 08:25:27;;;;;;;19.50;14.90;;;;;;;10.37;51.31;101162.93;106052;1256;1002718;-56
2024/01/25 08:27:54;;;;;;;20.00;15.40;;;;;;;10.38;51.44;101165.88;105655;1275;1003641;-54
2024/01/25 08:30:22;;;;;;;22.00;15.70;;;;;;;10.37;51.55;101161.89;106686;1272;25366;-58
2024/01/25 08:32:48;;;;;;;21.40;14.70;;;;;;;10.37;51.69;101162.07;106672;1271;25502;-57
2024/01/25 08:35:16;;;;;;;21.80;15.00;;;;;;;10.37;51.83;101162.59;106594;1271;22542;-57
2024/01/25 08:37:43;;;;;;;21.20;15.50;;;;;;;10.38;52.01;101166.73;106661;1271;25363;-57
2024/01/25 08:40:11;;;;;;;21.80;15.40;;;;;;;10.38;52.15;101166.39;106939;1278;22552;-56
2024/01/25 08:42:39;;;;;;;20.90;15.00;;;;;;;10.40;52.36;101164.80;106848;1275;24206;-56
2024/01/25 08:45:08;;;;;;;22.10;15.90;;;;;;;10.44;52.35;101167.16;106795;1272;25378;-57
2024/01/25 08:47:36;;;;;;;22.20;14.30;;;;;;;10.48;52.50;101166.06;105626;1278;1002950;-55
2024/01/25 08:50:08;;;;;;;20.20;13.90;;;;;;;10.51;52.58;101164.80;106575;1271;22494;-53
2024/01/25 08:52:37;;;;;;;19.40;13.50;;;;;;;10.56;52.57;101161.27;106505;1271;22557;-55
2024/01/25 08:55:04;;;;;;;18.30;13.10;;;;;;;10.59;52.58;101161.04;106416;1274;24231;-55
2024/01/25 08:57:32;;;;;;;19.10;12.40;;;;;;;10.62;52.61;101163.09;106401;1272;25407;-55
2024/01/25 09:00:00;;;;;;;16.20;11.80;;;;;;;10.66;52.44;101158.68;106751;1272;25349;-55
2024/01/25 09:02:31;;;;;;;20.20;14.40;;;;;;;10.70;52.05;101151.69;106675;1272;25417;-54
2024/01/25 09:04:59;;;;;;;;;;;;;;;10.74;51.86;101152.48;106613;1273;23856;-55
2024/01/25 09:07:27;;;;;;;30.10;21.20;;;;;;;10.78;51.74;101146.67;106487;1278;25408;-54
2024/01/25 09:09:54;;;;;;;20.20;14.70;;;;;;;10.82;51.51;101142.27;106688;1275;22546;-55
2024/01/25 09:12:21;;;;;;;17.60;12.60;;;;;;;10.86;51.34;101139.78;106563;1272;25519;-56
2024/01/25 09:14:48;;;;;;;18.70;13.50;;;;;;;10.91;51.46;101135.17;106800;1271;25408;-55
2024/01/25 09:17:21;;;;;;;17.60;12.80;;;;;;;10.98;51.48;101131.26;106623;1274;25403;-53
2024/01/25 09:19:49;;;;;;;16.30;12.10;;;;;;;11.06;51.44;101129.88;106703;1278;25383;-53
2024/01/25 09:22:19;;;;;;;16.50;12.40;;;;;;;11.14;51.26;101126.10;106916;1275;25354;-54
2024/01/25 09:24:46;;;;;;;16.00;11.70;;;;;;;11.23;51.23;101120.36;106986;1272;22533;-56
2024/01/25 09:27:14;;;;;;;14.40;11.10;;;;;;;11.29;51.29;101112.95;106852;1259;25367;-55
2024/01/25 09:29:41;;;;;;;13.10;10.30;;;;;;;11.37;51.50;101112.64;106714;1259;25330;-55
2024/01/25 09:32:09;;;;;;;12.30;8.50;;;;;;;11.46;51.47;101111.95;106234;1259;1003173;-53
2024/01/25 09:34:37;;;;;;;10.90;7.80;;;;;;;11.55;51.41;101105.68;106825;1272;25403;-54
2024/01/25 09:37:06;;;;;;;9.70;7.40;;;;;;;11.66;51.24;101099.74;106343;1272;25415;-54
2024/01/25 09:39:35;;;;;;;10.10;7.70;;;;;;;11.76;50.84;101098.16;106587;1256;22546;-55
2024/01/25 09:42:03;;;;;;;10.70;6.90;;;;;;;11.86;50.68;101092.55;106627;1271;23913;-53
2024/01/25 09:44:31;;;;;;;11.90;7.40;;;;;;;11.94;50.49;101088.37;106422;1260;23268;-54
2024/01/25 09:46:58;;;;;;;8.60;7.00;;;;;;;12.01;50.23;101086.48;106554;1272;22529;-53
2024/01/25 09:49:25;;;;;;;7.60;5.60;;;;;;;12.07;50.03;101085.98;106235;1275;25383;-56
2024/01/25 09:51:53;;;;;;;9.30;5.50;;;;;;;12.12;49.97;101079.77;106557;1262;25351;-56
2024/01/25 09:54:20;;;;;;;5.80;4.70;;;;;;;12.16;49.88;101075.85;106749;1272;25341;-55
2024/01/25 09:56:47;;;;;;;7.90;5.30;;;;;;;12.20;50.01;101071.23;106464;1278;23316;-54
2024/01/25 09:59:14;;;;;;;7.90;5.30;;;;;;;12.23;50.11;101072.39;106740;1272;25338;-52
2024/01/25 10:01:42;;;;;;;7.90;5.70;;;;;;;12.26;50.27;101069.20;106725;1260;25392;-54
2024/01/25 10:04:10;;;;;;;6.20;4.00;;;;;;;12.31;50.48;101060.58;107081;1265;24252;-54
2024/01/25 10:06:37;;;;;;;7.40;4.90;;;;;;;12.35;50.22;101057.34;106715;1272;25592;-53
2024/01/25 10:09:06;;;;;;;7.00;4.70;;;;;;;12.39;50.03;101053.39;106877;1256;25357;-54
2024/01/25 10:11:35;;;;;;;6.90;4.60;;;;;;;12.44;49.92;101048.58;106545;1275;22527;-54
2024/01/25 10:14:08;;;;;;;6.20;4.90;;;;;;;12.50;49.73;101043.40;106712;1272;25408;-52
2024/01/25 10:16:36;;;;;;;6.30;4.50;;;;;;;12.55;49.51;101042.55;106323;1278;22667;-54
2024/01/25 10:19:06;;;;;;;7.20;4.90;;;;;;;12.59;49.45;101039.83;106764;1272;25356;-54
2024/01/25 10:21:35;;;;;;;15.20;5.10;;;;;;;12.67;49.36;101044.86;106743;1276;22589;-54
2024/01/25 10:24:05;;;;;;;7.40;4.90;;;;;;;12.74;48.76;101039.63;106822;1272;25278;-54
2024/01/25 10:26:34;;;;;;;8.90;5.60;;;;;;;12.80;48.57;101038.07;106958;1272;24530;-54
2024/01/25 10:29:02;;;;;;;6.70;4.80;;;;;;;12.84;48.51;101039.70;106984;1260;22539;-51
2024/01/25 10:31:30;;;;;;;6.10;4.60;;;;;;;12.87;48.35;101039.80;106778;1272;25408;-54
2024/01/25 10:34:00;;;;;;;6.50;5.60;;;;;;;12.90;48.44;101033.80;106525;1274;25405;-52
2024/01/25 10:36:27;;;;;;;7.80;5.40;;;;;;;12.93;48.22;101036.83;106963;1272;25341;-54
2024/01/25 10:38:55;;;;;;;6.40;4.90;;;;;;;12.96;47.73;101034.33;105973;1272;1003117;-53
2024/01/25 10:41:23;;;;;;;7.40;5.40;;;;;;;12.98;47.70;101029.90;106842;1273;25379;-54
2024/01/25 10:43:51;;;;;;;10.00;5.20;;;;;;;13.01;47.52;101023.73;106960;1271;22558;-53
2024/01/25 10:46:18;;;;;;;7.20;4.80;;;;;;;13.06;47.42;101018.91;106865;1271;24221;-53
2024/01/25 10:48:45;;;;;;;6.00;4.60;;;;;;;13.10;47.23;101016.73;106784;1272;25483;-53
2024/01/25 10:51:18;;;;;;;7.50;4.60;;;;;;;13.13;47.23;101015.10;106690;1272;25430;-52
2024/01/25 10:53:46;;;;;;;8.10;5.40;;;;;;;13.16;47.23;101008.56;106925;1259;25369;-52
2024/01/25 10:56:13;;;;;;;8.40;5.40;;;;;;;13.20;47.26;101011.06;107139;1272;25489;-52
2024/01/25 10:58:41;;;;;;;7.20;4.80;;;;;;;13.23;47.40;101005.91;106807;1269;26504;-53
2024/01/25 11:01:10;;;;;;;7.30;4.80;;;;;;;13.28;47.38;101002.13;107022;1271;22621;-52
2024/01/25 11:03:41;;;;;;;4.70;3.60;;;;;;;13.33;47.34;101003.02;106862;1271;22648;-52
2024/01/25 11:06:12;;;;;;;6.00;4.20;;;;;;;13.39;47.01;101000.91;106894;1256;22587;-52
2024/01/25 11:08:40;;;;;;;6.10;4.00;;;;;;;13.44;46.73;101004.95;106873;1272;24373;-55